Time;durP1;ratioP1;P1;durP2;ratioP2;P2;SDS_P1;SDS_P2;PMS_P1;PMS_P2;Temp;Humidity;BMP_temperature;BMP_pressure;BME280_temperature;BME280_humidity;BME280_pressure;Samples;Min_cycle;Max_cycle;Signal;HPM_P1;HPM_P2
2021/08/04 00:04:30;;;;;;;7.07;6.28;;;;;;;17.25;60.51;101405.28;10478474;28;20049;-82
2021/08/04 00:09:31;;;;;;;9.48;6.38;;;;;;;17.18;60.33;101405.38;10496628;28;20055;-82
2021/08/04 00:14:31;;;;;;;7.15;5.72;;;;;;;17.14;60.42;101402.25;10460230;28;20035;-82
2021/08/04 00:19:33;;;;;;;7.93;6.85;;;;;;;17.02;60.49;101401.34;10497377;28;20036;-82
2021/08/04 00:24:34;;;;;;;9.35;7.50;;;;;;;16.89;60.64;101402.34;10464750;28;20041;-82
2021/08/04 00:29:34;;;;;;;11.00;7.03;;;;;;;16.74;60.98;101404.56;10497144;28;20427;-83
2021/08/04 00:34:35;;;;;;;13.95;7.53;;;;;;;16.62;60.94;101400.88;10461935;28;20045;-82
2021/08/04 00:39:35;;;;;;;8.98;8.00;;;;;;;16.49;61.02;101383.53;10463243;28;20217;-82
2021/08/04 00:44:36;;;;;;;11.15;8.00;;;;;;;16.06;61.22;101337.09;10461648;28;20063;-82
2021/08/04 00:49:37;;;;;;;15.40;7.38;;;;;;;16.35;61.66;101403.03;10461018;28;20035;-82
2021/08/04 00:54:38;;;;;;;14.25;8.88;;;;;;;16.21;61.09;101397.69;10477069;28;20036;-82
2021/08/04 00:59:38;;;;;;;11.85;9.10;;;;;;;16.24;61.80;101407.31;10460135;28;20033;-82
2021/08/04 01:04:45;;;;;;;15.48;8.65;;;;;;;16.17;61.40;101401.09;10495001;28;20458;-83
2021/08/04 01:09:48;;;;;;;13.32;9.82;;;;;;;16.09;61.91;101401.38;10460770;28;20132;-82
2021/08/04 01:14:50;;;;;;;14.07;9.73;;;;;;;16.03;62.47;101398.47;10476866;28;20040;-82
2021/08/04 01:20:15;;;;;;;12.88;9.70;;;;;;;15.79;63.52;101394.66;10476098;28;20040;-82
2021/08/04 01:25:17;;;;;;;18.77;11.35;;;;;;;15.46;65.39;101350.28;10459361;28;20083;-82
2021/08/04 01:30:18;;;;;;;14.27;9.48;;;;;;;15.81;64.78;101410.78;10491817;28;20028;-82
2021/08/04 01:35:19;;;;;;;11.90;9.90;;;;;;;15.73;63.99;101381.00;10475259;28;20086;-82
2021/08/04 01:40:19;;;;;;;18.48;10.65;;;;;;;15.93;64.02;101409.03;10459972;28;20375;-82
2021/08/04 01:45:20;;;;;;;13.18;10.82;;;;;;;16.00;64.32;101415.28;10492922;28;20163;-82
2021/08/04 01:50:22;;;;;;;17.20;10.45;;;;;;;16.05;63.39;101398.25;10460407;28;20167;-82
2021/08/04 01:55:23;;;;;;;13.00;10.27;;;;;;;15.92;63.13;101387.41;10494467;28;20047;-82
2021/08/04 02:00:23;;;;;;;15.63;10.15;;;;;;;15.90;63.69;101397.72;10476313;28;20123;-82
2021/08/04 02:05:24;;;;;;;21.10;10.05;;;;;;;15.69;63.52;101372.41;10459814;28;20028;-82
2021/08/04 02:10:52;;;;;;;12.70;10.05;;;;;;;15.88;63.07;101375.25;10459352;28;20035;-82
2021/08/04 02:15:54;;;;;;;14.13;9.85;;;;;;;16.04;63.55;101381.00;10494113;28;20102;-82
2021/08/04 02:20:55;;;;;;;16.38;9.93;;;;;;;16.22;63.20;101402.09;10442582;28;20436;-82
2021/08/04 02:26:15;;;;;;;10.25;9.15;;;;;;;16.23;63.24;101397.47;10475609;28;20043;-82
2021/08/04 02:31:16;;;;;;;12.45;9.15;;;;;;;16.13;63.32;101376.09;10476251;28;20041;-82
2021/08/04 02:36:16;;;;;;;13.55;9.85;;;;;;;16.18;62.97;101383.66;10493053;28;20036;-82
2021/08/04 02:41:17;;;;;;;12.15;9.82;;;;;;;16.04;63.10;101383.72;10456033;28;20075;-82
2021/08/04 02:46:17;;;;;;;12.55;9.60;;;;;;;15.76;63.60;101354.13;10474238;28;20437;-82
2021/08/04 02:51:19;;;;;;;11.35;9.68;;;;;;;15.47;64.37;101319.19;10471623;28;20039;-82
2021/08/04 02:56:19;;;;;;;14.45;11.02;;;;;;;15.29;64.62;101314.50;10440057;28;20371;-82
2021/08/04 03:01:20;;;;;;;13.55;11.18;;;;;;;15.61;64.49;101377.31;10477554;28;20040;-82
2021/08/04 03:06:20;;;;;;;15.13;10.80;;;;;;;15.56;65.19;101386.13;10478174;28;20043;-82
2021/08/04 03:11:20;;;;;;;13.85;10.07;;;;;;;15.46;64.72;101377.59;10461181;28;20108;-82
2021/08/04 03:16:21;;;;;;;13.77;10.10;;;;;;;15.37;65.16;101381.63;10476492;28;20037;-82
2021/08/04 03:21:22;;;;;;;11.23;9.68;;;;;;;15.22;65.48;101343.69;10478977;28;20185;-82
2021/08/04 03:26:23;;;;;;;11.90;10.52;;;;;;;15.15;65.51;101338.25;10478195;28;20059;-82
2021/08/04 03:31:23;;;;;;;13.85;11.73;;;;;;;15.34;66.45;101383.72;10462668;28;20040;-82
2021/08/04 03:36:25;;;;;;;19.77;12.35;;;;;;;14.62;65.82;101270.34;10495963;28;20048;-82
2021/08/04 03:41:25;;;;;;;12.77;11.40;;;;;;;15.23;66.31;101376.22;10477429;28;20052;-82
2021/08/04 03:46:26;;;;;;;17.20;11.73;;;;;;;15.22;65.90;101373.69;10461071;28;20041;-82
2021/08/04 03:51:26;;;;;;;12.23;10.32;;;;;;;15.10;65.52;101360.75;10461340;28;20037;-82
2021/08/04 03:56:27;;;;;;;13.05;11.15;;;;;;;14.49;64.74;101257.56;10463118;28;20028;-82
2021/08/04 04:01:28;;;;;;;18.77;10.98;;;;;;;14.78;66.19;101323.53;10495299;28;20416;-82
2021/08/04 04:06:28;;;;;;;12.05;9.45;;;;;;;15.08;65.93;101386.56;10477088;28;20097;-82
2021/08/04 04:11:29;;;;;;;11.43;10.05;;;;;;;15.10;66.82;101382.56;10476462;28;20147;-82
2021/08/04 04:16:30;;;;;;;12.52;10.25;;;;;;;15.01;65.25;101370.22;10460072;28;20033;-82
2021/08/04 04:21:35;;;;;;;11.48;10.25;;;;;;;15.05;65.26;101385.09;10474027;28;20479;-84
2021/08/04 04:26:35;;;;;;;16.33;10.38;;;;;;;15.22;64.98;101409.16;10491590;28;20150;-83
2021/08/04 04:31:36;;;;;;;11.57;10.55;;;;;;;15.24;65.17;101407.06;10491852;28;20477;-81
2021/08/04 04:36:38;;;;;;;18.17;13.02;;;;;;;15.27;65.37;101402.00;10475233;28;20048;-81
2021/08/04 04:41:38;;;;;;;27.45;12.35;;;;;;;15.12;65.57;101376.88;10492452;28;20052;-81
2021/08/04 04:46:39;;;;;;;14.05;11.95;;;;;;;15.33;65.53;101403.03;10478116;28;20115;-81
2021/08/04 04:51:39;;;;;;;11.88;10.63;;;;;;;15.33;66.47;101401.16;10474201;28;20093;-81
2021/08/04 04:56:40;;;;;;;15.57;12.13;;;;;;;15.51;66.51;101413.25;10490994;28;20116;-82
2021/08/04 05:01:40;;;;;;;18.52;10.75;;;;;;;15.59;66.51;101410.25;10474090;28;20191;-81
2021/08/04 05:06:41;;;;;;;16.70;11.10;;;;;;;15.79;66.55;101418.34;10471706;28;20052;-80
2021/08/04 05:11:41;;;;;;;13.80;11.90;;;;;;;15.91;66.33;101415.78;10472019;28;20043;-79
2021/08/04 05:16:41;;;;;;;12.05;10.65;;;;;;;16.25;66.31;101418.03;10490254;28;20497;-81
2021/08/04 05:21:42;;;;;;;12.65;11.13;;;;;;;17.09;65.11;101413.03;10490262;28;20043;-81
2021/08/04 05:26:42;;;;;;;11.07;9.93;;;;;;;17.58;64.05;101410.31;10491639;28;20463;-82
2021/08/04 05:31:43;;;;;;;13.60;11.55;;;;;;;18.10;63.33;101427.09;10474544;28;20535;-81
2021/08/04 05:36:44;;;;;;;11.15;9.13;;;;;;;18.36;62.95;101428.56;10474406;28;20160;-81
2021/08/04 05:41:44;;;;;;;13.13;8.95;;;;;;;18.89;61.99;101451.50;10449373;28;20383;-81
2021/08/04 05:46:45;;;;;;;11.48;8.82;;;;;;;19.22;61.22;101432.50;10448725;28;20047;-81
2021/08/04 05:51:45;;;;;;;12.32;8.13;;;;;;;19.48;60.97;101446.75;10449351;28;20042;-81
2021/08/04 05:56:46;;;;;;;14.00;8.52;;;;;;;20.04;59.98;101428.66;10449713;28;20527;-81
2021/08/04 06:01:47;;;;;;;9.95;7.80;;;;;;;20.46;58.91;101414.50;10449731;28;20447;-81
2021/08/04 06:06:48;;;;;;;10.95;7.75;;;;;;;20.63;57.80;101363.03;10433638;28;20041;-81
2021/08/04 06:11:48;;;;;;;9.20;7.30;;;;;;;21.54;57.70;101423.19;10450078;28;20060;-81
2021/08/04 06:16:49;;;;;;;12.02;7.13;;;;;;;21.70;56.68;101434.38;10447754;28;20166;-81
2021/08/04 06:21:49;;;;;;;7.93;6.25;;;;;;;22.20;55.91;101433.25;10447160;28;20506;-81
2021/08/04 06:26:50;;;;;;;11.73;6.90;;;;;;;22.47;55.44;101439.56;10448311;28;20033;-81
2021/08/04 06:31:50;;;;;;;7.88;6.93;;;;;;;22.34;54.29;101395.84;10433012;28;20120;-81
2021/08/04 06:36:51;;;;;;;9.48;6.57;;;;;;;22.62;53.84;101419.53;10454672;28;20371;-81
2021/08/04 06:41:52;;;;;;;6.75;6.15;;;;;;;22.86;53.53;101425.47;10475958;28;20083;-81
2021/08/04 06:46:56;;;;;;;10.80;7.18;;;;;;;22.38;52.89;101313.38;10477265;28;20067;-81
2021/08/04 06:51:57;;;;;;;6.63;5.95;;;;;;;23.41;52.33;101420.50;10476955;28;20059;-81
2021/08/04 06:56:58;;;;;;;6.90;6.10;;;;;;;24.22;51.46;101427.31;10477040;28;20041;-80
2021/08/04 07:02:01;;;;;;;5.95;5.43;;;;;;;24.54;50.26;101424.31;10476832;28;20131;-81
2021/08/04 07:07:02;;;;;;;5.88;5.28;;;;;;;24.63;49.42;101383.84;10479956;28;20040;-81
2021/08/04 07:12:03;;;;;;;5.95;5.35;;;;;;;25.28;48.37;101409.72;10462269;28;20037;-81
2021/08/04 07:17:04;;;;;;;5.70;4.78;;;;;;;25.91;48.72;101433.25;10478372;28;20491;-81
2021/08/04 07:22:04;;;;;;;10.88;5.20;;;;;;;26.18;47.27;101433.63;10496948;28;20040;-81
2021/08/04 07:27:05;;;;;;;10.02;5.47;;;;;;;25.82;47.15;101419.19;10461523;28;20036;-81
2021/08/04 07:32:05;;;;;;;10.35;4.22;;;;;;;25.82;47.02;101412.81;10446755;28;20068;-81
2021/08/04 07:37:08;;;;;;;5.15;4.65;;;;;;;26.37;46.35;101430.13;10463527;28;20138;-81
2021/08/04 07:42:08;;;;;;;5.47;4.70;;;;;;;26.66;45.09;101432.94;10479742;28;20048;-80
2021/08/04 07:47:10;;;;;;;4.60;4.20;;;;;;;26.36;43.99;101428.50;10479532;28;20143;-81
2021/08/04 07:52:10;;;;;;;4.68;4.28;;;;;;;26.09;46.01;101427.03;10497114;28;20040;-81
2021/08/04 07:57:11;;;;;;;3.70;3.17;;;;;;;26.10;45.44;101428.69;10478779;28;20458;-81
2021/08/04 08:02:11;;;;;;;3.95;3.65;;;;;;;26.52;47.22;101418.09;10496861;28;20440;-81
2021/08/04 08:07:11;;;;;;;3.88;3.58;;;;;;;26.97;46.58;101396.50;10496067;28;20367;-81
2021/08/04 08:12:12;;;;;;;4.03;3.72;;;;;;;27.61;50.35;101416.56;10496437;28;20443;-81
2021/08/04 08:17:13;;;;;;;9.65;3.13;;;;;;;27.49;41.55;101414.22;10480292;28;20086;-81
2021/08/04 08:22:13;;;;;;;7.65;4.15;;;;;;;27.65;44.86;101407.31;10496208;28;20037;-81
2021/08/04 08:27:13;;;;;;;5.93;4.57;;;;;;;26.83;42.69;101376.91;10496091;28;20044;-80
2021/08/04 08:32:14;;;;;;;4.50;3.83;;;;;;;27.52;40.39;101394.97;10495230;28;20037;-80
2021/08/04 08:37:14;;;;;;;6.13;4.07;;;;;;;27.51;44.44;101359.94;10495706;28;20052;-80
2021/08/04 08:42:17;;;;;;;8.93;4.63;;;;;;;27.13;41.99;101376.59;10476605;28;20086;-81
2021/08/04 08:47:18;;;;;;;4.78;4.35;;;;;;;27.58;41.77;101385.44;10476789;28;20056;-81
2021/08/04 08:52:18;;;;;;;7.95;4.90;;;;;;;28.46;42.57;101394.09;10476311;28;20036;-80
2021/08/04 08:57:19;;;;;;;15.55;6.30;;;;;;;28.39;40.77;101376.91;10492638;28;20083;-81
2021/08/04 09:02:19;;;;;;;6.47;5.25;;;;;;;28.92;46.39;101387.63;10493824;28;20481;-80
2021/08/04 09:07:50;;;;;;;6.95;5.75;;;;;;;28.17;44.24;101396.22;10492899;28;20402;-80
2021/08/04 09:12:51;;;;;;;8.55;7.15;;;;;;;27.79;39.09;101390.72;10478973;28;20413;-80
2021/08/04 09:18:07;;;;;;;21.52;11.27;;;;;;;27.79;44.27;101371.22;10495213;28;20496;-80
2021/08/04 09:23:10;;;;;;;18.20;7.17;;;;;;;28.42;43.38;101367.13;10493360;28;20135;-80
2021/08/04 09:28:11;;;;;;;9.10;7.97;;;;;;;28.10;41.63;101390.22;10477346;28;20039;-80
2021/08/04 09:33:21;;;;;;;9.40;8.30;;;;;;;28.89;40.71;101388.25;10475517;28;20469;-80
2021/08/04 09:38:21;;;;;;;7.72;7.03;;;;;;;29.07;39.97;101388.47;10491278;28;20036;-80
2021/08/04 09:43:23;;;;;;;14.90;6.72;;;;;;;29.78;35.79;101313.50;10491915;28;20103;-80
2021/08/04 09:48:24;;;;;;;8.95;8.10;;;;;;;30.66;40.66;101324.84;10492408;28;20150;-81
2021/08/04 09:53:33;;;;;;;10.23;8.25;;;;;;;30.01;36.20;101382.16;10457024;28;20088;-80
2021/08/04 09:58:34;;;;;;;15.27;8.50;;;;;;;29.64;39.83;101364.66;10473127;28;20040;-80
2021/08/04 10:03:35;;;;;;;11.00;9.55;;;;;;;30.22;35.06;101374.13;10489931;28;20047;-80
2021/08/04 10:08:38;;;;;;;8.35;7.53;;;;;;;30.00;34.62;101372.16;10459587;28;20395;-80
2021/08/04 10:13:38;;;;;;;21.05;8.65;;;;;;;30.38;33.94;101374.56;10497049;28;20033;-79
2021/08/04 10:18:39;;;;;;;7.10;6.45;;;;;;;31.56;35.08;101360.81;10481219;28;20488;-80
2021/08/04 10:23:40;;;;;;;10.90;7.22;;;;;;;30.35;33.68;101362.03;10481034;28;20028;-80
2021/08/04 10:28:42;;;;;;;8.68;7.82;;;;;;;29.62;37.69;101378.09;10498367;28;20029;-80
2021/08/04 10:33:42;;;;;;;8.55;7.43;;;;;;;30.47;39.30;101358.66;10462827;28;20088;-80
2021/08/04 10:38:45;;;;;;;8.65;7.75;;;;;;;29.96;34.31;101347.94;10496252;28;20059;-80
2021/08/04 10:43:51;;;;;;;18.08;8.20;;;;;;;28.65;36.85;101365.31;10478749;28;20380;-80
2021/08/04 10:48:57;;;;;;;9.88;7.60;;;;;;;27.98;38.72;101363.72;10477725;28;20079;-80
2021/08/04 10:54:00;;;;;;;7.18;6.50;;;;;;;27.32;41.53;101295.97;10493024;28;20428;-80
2021/08/04 10:59:12;;;;;;;18.55;7.65;;;;;;;26.89;40.35;101364.63;10494714;28;20118;-80
2021/08/04 11:04:33;;;;;;;8.73;7.90;;;;;;;27.09;39.73;101353.25;10497655;28;20032;-80
2021/08/04 11:09:40;;;;;;;21.33;9.35;;;;;;;26.67;45.08;101360.44;10478391;28;20095;-81
2021/08/04 11:14:45;;;;;;;12.70;8.43;;;;;;;26.18;41.36;101347.56;10479723;28;20413;-80
2021/08/04 11:19:58;;;;;;;12.68;10.70;;;;;;;25.58;40.90;101344.13;10496322;28;20048;-80
2021/08/04 11:25:08;;;;;;;11.27;8.82;;;;;;;25.81;43.48;101341.75;10497036;28;20047;-80
2021/08/04 11:30:11;;;;;;;13.13;6.38;;;;;;;25.79;43.09;101316.25;10478657;28;20097;-80
2021/08/04 11:35:16;;;;;;;8.02;7.25;;;;;;;25.65;42.17;101324.38;10495598;28;20083;-80
2021/08/04 11:40:16;;;;;;;8.07;7.32;;;;;;;25.63;40.99;101338.53;10477266;28;20063;-81
2021/08/04 11:45:17;;;;;;;7.00;6.30;;;;;;;25.99;41.21;101341.06;10495197;28;20028;-80
2021/08/04 11:50:17;;;;;;;6.97;6.28;;;;;;;26.42;40.34;101317.06;10496875;28;20127;-80
2021/08/04 11:55:21;;;;;;;10.00;8.60;;;;;;;26.49;41.42;101299.25;10496851;28;20040;-80
2021/08/04 12:00:23;;;;;;;8.70;7.80;;;;;;;25.65;42.04;101268.91;10480571;28;20044;-80
2021/08/04 12:05:24;;;;;;;8.35;7.55;;;;;;;26.20;40.47;101319.53;10480887;28;20033;-80
2021/08/04 12:10:25;;;;;;;6.38;4.93;;;;;;;26.23;41.61;101313.38;10478803;28;20048;-80
2021/08/04 12:15:27;;;;;;;7.90;6.65;;;;;;;26.57;41.11;101316.09;10494599;28;20036;-80
2021/08/04 12:20:29;;;;;;;13.43;7.22;;;;;;;26.67;41.38;101327.09;10494728;28;20128;-80
2021/08/04 12:25:33;;;;;;;8.57;7.32;;;;;;;26.27;42.13;101324.72;10491958;28;20078;-80
2021/08/04 12:30:52;;;;;;;11.40;7.65;;;;;;;25.88;44.74;101328.41;10476582;28;20032;-80
2021/08/04 12:41:18;;;;;;;10.82;8.45;;;;;;;25.32;45.02;101323.22;10472600;28;20434;-81
2021/08/04 12:46:33;;;;;;;12.13;9.07;;;;;;;24.51;46.11;101244.91;10493051;28;20108;-80
2021/08/04 12:51:38;;;;;;;9.80;8.90;;;;;;;24.77;45.97;101298.25;10476179;28;20096;-80
2021/08/04 12:56:41;;;;;;;13.45;9.68;;;;;;;24.91;46.08;101323.41;10491861;28;20068;-80
2021/08/04 13:02:10;;;;;;;12.68;10.13;;;;;;;25.05;47.43;101327.22;10475473;28;20082;-80
2021/08/04 13:07:12;;;;;;;13.43;9.38;;;;;;;25.05;46.68;101335.53;10474142;28;20024;-80
2021/08/04 13:12:25;;;;;;;13.13;9.32;;;;;;;24.86;47.23;101304.88;10456880;28;20090;-80
2021/08/04 13:17:33;;;;;;;8.45;7.65;;;;;;;24.76;47.56;101307.66;10474954;28;20032;-80
2021/08/04 13:22:53;;;;;;;15.73;8.73;;;;;;;24.69;48.58;101324.56;10457796;28;20075;-81
2021/08/04 13:28:05;;;;;;;11.35;8.27;;;;;;;24.52;48.52;101318.53;10468703;28;20036;-80
2021/08/04 13:33:07;;;;;;;7.53;6.78;;;;;;;24.39;48.94;101314.38;10451189;28;20480;-80
2021/08/04 13:38:07;;;;;;;8.82;7.88;;;;;;;23.62;49.40;101239.75;10470431;28;20036;-81
2021/08/04 13:43:07;;;;;;;9.43;8.07;;;;;;;24.01;49.70;101324.13;10474073;28;20049;-80
2021/08/04 13:48:08;;;;;;;9.75;8.10;;;;;;;23.89;49.64;101330.75;10477460;28;20034;-80
2021/08/04 13:53:08;;;;;;;7.95;7.35;;;;;;;23.69;50.35;101339.03;10477143;28;20095;-81
2021/08/04 13:58:09;;;;;;;10.85;9.05;;;;;;;23.51;50.08;101336.78;10495428;28;20082;-81
2021/08/04 14:03:09;;;;;;;11.57;8.02;;;;;;;23.35;50.44;101345.03;10475817;28;20512;-81
2021/08/04 14:08:12;;;;;;;8.25;7.45;;;;;;;23.11;50.99;101338.34;10477440;28;20036;-80
2021/08/04 14:13:12;;;;;;;10.80;8.77;;;;;;;23.10;51.39;101347.69;10460136;28;20025;-80
2021/08/04 14:18:13;;;;;;;16.63;8.20;;;;;;;22.17;53.93;101262.75;10476537;28;20428;-81
2021/08/04 14:23:13;;;;;;;10.38;8.43;;;;;;;22.47;53.54;101298.81;10493795;28;20093;-80
2021/08/04 14:28:14;;;;;;;13.88;8.10;;;;;;;22.14;54.03;101254.97;10492796;28;20040;-80
2021/08/04 14:33:14;;;;;;;14.98;8.90;;;;;;;22.64;53.73;101322.63;10474456;28;20487;-80
2021/08/04 14:38:15;;;;;;;9.65;8.55;;;;;;;22.86;53.96;101316.94;10473912;28;20112;-80
2021/08/04 14:43:15;;;;;;;10.13;8.18;;;;;;;23.27;52.97;101333.69;10493170;28;20258;-80
2021/08/04 14:48:17;;;;;;;9.20;7.32;;;;;;;23.39;52.48;101321.28;10493059;28;20042;-81
2021/08/04 14:53:17;;;;;;;9.07;6.97;;;;;;;23.58;52.15;101321.59;10476705;28;20040;-80
2021/08/04 14:58:18;;;;;;;7.97;7.07;;;;;;;23.63;51.51;101313.28;10480566;28;20437;-80
2021/08/04 15:03:19;;;;;;;7.43;6.65;;;;;;;23.69;50.68;101305.88;10497592;28;20032;-80
2021/08/04 15:08:19;;;;;;;6.97;6.28;;;;;;;23.80;50.39;101312.22;10482840;28;20046;-80
2021/08/04 15:13:19;;;;;;;6.50;5.75;;;;;;;23.89;50.06;101311.38;10479306;28;20028;-80
2021/08/04 15:18:20;;;;;;;11.65;7.00;;;;;;;23.83;50.10;101304.19;10499183;28;20154;-80
2021/08/04 15:23:20;;;;;;;7.50;6.40;;;;;;;23.96;50.22;101304.75;10477141;28;20075;-80
2021/08/04 15:28:21;;;;;;;12.95;7.45;;;;;;;24.11;50.22;101304.75;10476967;28;20068;-80
2021/08/04 15:33:21;;;;;;;8.25;6.38;;;;;;;23.59;50.72;101222.91;10480458;28;20146;-80
2021/08/04 15:38:25;;;;;;;8.18;6.38;;;;;;;24.04;50.42;101295.91;10464016;28;20185;-80
2021/08/04 15:43:26;;;;;;;6.68;6.07;;;;;;;23.96;50.51;101288.16;10478449;28;20053;-80
2021/08/04 15:48:30;;;;;;;5.65;5.10;;;;;;;23.98;50.69;101261.06;10488954;28;20138;-80
2021/08/04 15:53:30;;;;;;;4.80;4.40;;;;;;;24.16;50.70;101281.78;10471112;28;20037;-80
2021/08/04 15:58:31;;;;;;;9.05;6.93;;;;;;;24.11;50.44;101290.91;10493434;28;20425;-80
2021/08/04 16:03:33;;;;;;;9.30;5.65;;;;;;;24.10;51.40;101286.50;10474351;28;20375;-80
2021/08/04 16:08:33;;;;;;;6.72;5.07;;;;;;;23.92;50.70;101253.88;10459051;28;20064;-80
2021/08/04 16:13:34;;;;;;;5.03;4.63;;;;;;;24.02;49.80;101275.97;10459800;28;20090;-80
2021/08/04 16:18:34;;;;;;;6.55;3.38;;;;;;;23.99;50.92;101273.78;10477406;28;20036;-80
2021/08/04 16:23:35;;;;;;;3.45;3.15;;;;;;;23.86;49.12;101276.00;10475890;28;20482;-80
2021/08/04 16:28:36;;;;;;;3.85;3.33;;;;;;;23.62;49.14;101255.53;10472644;28;20151;-80
2021/08/04 16:33:37;;;;;;;9.57;4.20;;;;;;;23.64;50.50;101259.69;10472545;28;20153;-80
2021/08/04 16:38:38;;;;;;;5.28;4.80;;;;;;;23.43;50.24;101242.22;10472259;28;20116;-80
2021/08/04 16:43:38;;;;;;;7.03;4.28;;;;;;;23.15;50.38;101196.59;10474090;28;20052;-80
2021/08/04 16:48:39;;;;;;;4.20;3.88;;;;;;;23.55;49.89;101254.97;10457517;28;20044;-80
2021/08/04 16:53:40;;;;;;;4.68;3.80;;;;;;;23.24;50.29;101248.56;10456797;28;20033;-80
2021/08/04 16:58:41;;;;;;;4.18;3.22;;;;;;;23.07;50.54;101246.03;10472463;28;20119;-80
2021/08/04 17:03:41;;;;;;;4.72;3.38;;;;;;;23.02;50.69;101243.28;10472275;28;20048;-80
2021/08/04 17:08:41;;;;;;;4.93;4.43;;;;;;;23.03;51.00;101245.75;10472698;28;20041;-80
2021/08/04 17:13:42;;;;;;;5.70;4.85;;;;;;;22.92;51.50;101242.13;10489773;28;20108;-80
2021/08/04 17:18:42;;;;;;;6.10;4.63;;;;;;;22.86;51.68;101242.38;10454315;28;20060;-80
2021/08/04 17:23:43;;;;;;;11.32;4.93;;;;;;;22.69;51.78;101223.28;10454082;28;20032;-80
2021/08/04 17:28:43;;;;;;;6.28;4.95;;;;;;;22.52;52.74;101226.22;10471484;28;20098;-80
2021/08/04 17:33:44;;;;;;;8.00;6.05;;;;;;;22.04;54.32;101206.09;10471077;28;20040;-80
2021/08/04 17:38:45;;;;;;;11.38;5.82;;;;;;;22.08;54.81;101228.44;10489801;28;20388;-80
2021/08/04 17:43:45;;;;;;;8.20;6.75;;;;;;;22.02;55.31;101236.69;10470741;28;20400;-80
2021/08/04 17:48:46;;;;;;;8.70;7.13;;;;;;;21.16;55.99;101134.88;10489206;28;20048;-80
2021/08/04 17:53:50;;;;;;;19.30;7.05;;;;;;;21.58;56.86;101239.69;10471439;28;20047;-80
2021/08/04 17:58:51;;;;;;;7.78;6.97;;;;;;;21.37;57.48;101240.59;10471033;28;20372;-80
2021/08/04 18:03:51;;;;;;;7.18;6.57;;;;;;;21.23;58.25;101244.84;10487482;28;20079;-80
2021/08/04 18:08:52;;;;;;;8.18;6.97;;;;;;;21.27;58.05;101254.22;10487101;28;20043;-80
2021/08/04 18:13:52;;;;;;;6.97;6.38;;;;;;;21.08;58.45;101232.56;10447389;28;20355;-80
2021/08/04 18:18:53;;;;;;;7.70;6.72;;;;;;;21.04;58.85;101245.19;10429591;28;20100;-80
2021/08/04 18:23:54;;;;;;;9.15;7.15;;;;;;;20.95;58.92;101241.22;10480706;28;20064;-80
2021/08/04 18:28:54;;;;;;;8.00;7.07;;;;;;;20.95;58.22;101224.72;10457658;28;20147;-81
2021/08/04 18:33:55;;;;;;;13.02;7.28;;;;;;;21.15;57.90;101248.88;10463398;28;20111;-80
2021/08/04 18:38:55;;;;;;;7.80;6.88;;;;;;;21.11;57.85;101256.00;10479974;28;20556;-81
2021/08/04 18:43:56;;;;;;;9.00;7.45;;;;;;;19.81;58.17;101052.25;10479197;28;20122;-79
2021/08/04 18:48:56;;;;;;;7.35;6.75;;;;;;;20.96;58.23;101248.41;10477521;28;20064;-79
2021/08/04 18:53:57;;;;;;;8.60;7.70;;;;;;;20.42;58.06;101157.47;10495647;28;20071;-80
2021/08/04 18:58:57;;;;;;;6.53;5.57;;;;;;;21.01;57.54;101253.97;10457032;28;20381;-79
2021/08/04 19:03:57;;;;;;;6.15;5.63;;;;;;;20.67;57.49;101199.06;10455422;28;20115;-79
2021/08/04 19:08:58;;;;;;;8.43;7.25;;;;;;;21.05;57.30;101246.03;10471947;28;20125;-79
2021/08/04 19:14:00;;;;;;;8.45;6.22;;;;;;;20.83;57.51;101249.63;10474816;28;20071;-79
2021/08/04 19:19:01;;;;;;;8.70;5.40;;;;;;;20.70;57.55;101241.78;10479735;28;20041;-80
2021/08/04 19:24:01;;;;;;;8.40;6.05;;;;;;;20.72;57.90;101274.56;10479453;28;20036;-80
2021/08/04 19:29:02;;;;;;;6.82;5.65;;;;;;;20.71;57.92;101276.47;10479301;28;20040;-79
2021/08/04 19:34:02;;;;;;;6.80;5.75;;;;;;;20.73;57.52;101282.53;10463063;28;20051;-81
2021/08/04 19:39:03;;;;;;;5.32;4.82;;;;;;;20.81;57.11;101284.84;10496132;28;20036;-79
2021/08/04 19:44:04;;;;;;;7.65;5.10;;;;;;;20.66;56.92;101284.66;10477412;28;20057;-79
2021/08/04 19:49:04;;;;;;;6.38;4.55;;;;;;;20.69;56.82;101286.06;10473252;28;20108;-79
2021/08/04 19:54:05;;;;;;;6.60;4.55;;;;;;;20.38;57.21;101228.69;10471153;28;20033;-79
2021/08/04 19:59:06;;;;;;;6.85;4.80;;;;;;;20.62;57.31;101287.09;10471396;28;20049;-79
2021/08/04 20:04:07;;;;;;;4.93;4.45;;;;;;;20.66;57.01;101288.22;10472037;28;20405;-80
2021/08/04 20:09:08;;;;;;;4.50;4.10;;;;;;;20.78;56.89;101314.81;10472152;28;20043;-79
2021/08/04 20:14:08;;;;;;;5.60;4.90;;;;;;;20.66;56.91;101274.47;10473190;28;20059;-80
2021/08/04 20:19:09;;;;;;;4.85;4.43;;;;;;;20.56;56.86;101249.59;10474878;28;20037;-80
2021/08/04 20:24:09;;;;;;;4.85;4.45;;;;;;;20.76;56.98;101286.69;10474066;28;20044;-80
2021/08/04 20:29:09;;;;;;;5.45;4.97;;;;;;;20.76;56.99;101283.94;10491811;28;20060;-80
2021/08/04 20:34:10;;;;;;;7.32;5.32;;;;;;;20.74;56.85;101288.88;10474324;28;20029;-81
2021/08/04 20:39:11;;;;;;;5.47;4.68;;;;;;;20.65;57.19;101286.59;10492432;28;20093;-80
2021/08/04 20:44:11;;;;;;;4.88;4.45;;;;;;;20.58;57.44;101287.84;10456822;28;20049;-80
2021/08/04 20:49:12;;;;;;;6.05;5.40;;;;;;;20.52;57.40;101283.38;10472345;28;20045;-80
2021/08/04 20:54:12;;;;;;;12.35;6.75;;;;;;;20.39;57.89;101285.38;10473697;28;20068;-80
2021/08/04 20:59:20;;;;;;;6.65;4.50;;;;;;;19.71;58.04;101191.16;10492772;28;20044;-79
2021/08/04 21:04:20;;;;;;;9.63;4.15;;;;;;;20.05;58.16;101275.50;10478754;28;20392;-80
2021/08/04 21:09:21;;;;;;;6.60;4.47;;;;;;;19.81;58.65;101274.84;10472013;28;20109;-80
2021/08/04 21:14:21;;;;;;;5.25;4.85;;;;;;;19.53;58.81;101251.84;10454643;28;20044;-80
2021/08/04 21:19:22;;;;;;;10.57;6.43;;;;;;;19.35;59.30;101276.78;10456712;28;20064;-80
2021/08/04 21:24:22;;;;;;;7.32;4.78;;;;;;;19.23;59.66;101274.91;10471402;28;20115;-80
2021/08/04 21:29:23;;;;;;;5.35;4.57;;;;;;;18.98;59.88;101255.22;10489571;28;20040;-80
2021/08/04 21:34:23;;;;;;;9.02;5.97;;;;;;;18.99;60.38;101279.69;10471470;28;20089;-80
2021/08/04 21:39:23;;;;;;;6.75;5.75;;;;;;;18.87;60.38;101278.88;10469832;28;20040;-81
2021/08/04 21:44:24;;;;;;;6.57;5.97;;;;;;;18.77;60.44;101278.69;10440418;28;20083;-81
2021/08/04 21:49:24;;;;;;;7.65;5.53;;;;;;;18.57;60.79;101270.84;10493438;28;20124;-81
2021/08/04 21:54:25;;;;;;;7.57;6.85;;;;;;;18.43;61.73;101262.00;10462846;28;20048;-81
2021/08/04 21:59:25;;;;;;;7.30;6.00;;;;;;;18.35;62.44;101255.00;10460109;28;20086;-81
2021/08/04 22:04:26;;;;;;;9.15;6.05;;;;;;;18.55;62.26;101271.06;10456935;28;20067;-81
2021/08/04 22:09:27;;;;;;;6.55;5.95;;;;;;;18.56;62.28;101252.69;10477651;28;20044;-80
2021/08/04 22:14:28;;;;;;;14.00;7.65;;;;;;;18.69;61.97;101268.88;10457308;28;20025;-81
2021/08/04 22:19:28;;;;;;;7.03;6.30;;;;;;;18.26;61.36;101196.13;10453610;28;20040;-80
2021/08/04 22:24:29;;;;;;;7.28;6.57;;;;;;;18.68;62.05;101259.00;10453925;28;20041;-80
2021/08/04 22:29:29;;;;;;;8.93;8.13;;;;;;;18.71;61.99;101250.28;10470819;28;20037;-80
2021/08/04 22:34:30;;;;;;;10.85;8.25;;;;;;;18.83;61.69;101258.50;10451637;28;20088;-80
2021/08/04 22:39:30;;;;;;;6.70;6.07;;;;;;;18.79;61.75;101249.94;10486595;28;20038;-80
2021/08/04 22:44:31;;;;;;;10.63;7.45;;;;;;;18.88;61.52;101257.75;10452137;28;20139;-81
2021/08/04 22:49:32;;;;;;;8.77;7.70;;;;;;;18.55;61.71;101220.88;10485975;28;20036;-81
2021/08/04 22:54:32;;;;;;;7.93;7.22;;;;;;;18.69;62.01;101246.09;10435180;28;20036;-81
2021/08/04 22:59:33;;;;;;;9.10;7.70;;;;;;;18.47;62.42;101249.47;10468137;28;20048;-80
2021/08/04 23:04:33;;;;;;;8.40;7.70;;;;;;;18.32;62.48;101252.75;10486733;28;20116;-81